Siloam Springs, AR

11:26 AM CDT on August 04, 2015 (GMT -0500)
Lake Forrest Heights | | Change Station
CLOSE
Current Station
Personal Weather Station
Location: Siloam Springs, AR
Elevation: 1148 ft
Nearby Weather Stations

Elev 1148 ft 36.22 °N, 94.54 °W | Updated 11 minutes ago

Overcast
Overcast
69.3 °F
Feels Like 69.3 °F
N
0.0
Wind Variable Wind from North
Gusts 0.0 mph

Today
High -- | Low -- °F
--% Chance of Precip.
Yesterday
High -- | Low -- °F
Precip. -- in
6:27 AM 8:20 PM
Waning Gibbous, 76% visible
Pressure 30.02 in
Visibility 10.0 miles
Clouds Overcast 8500 ft
Dew Point 69 °F
Humidity 99%
Rainfall 0.00 in
Snow Depth Not available.
UV 3 out of 12
Pollen 5.70 out of 12
Air Quality Not available.
Flu Activity Not available.
METAR KSLG 041615Z AUTO 20006KT 10SM OVC085 28/19 A3002 RMK AO1

More Conditions Fewer Conditions

Pressure 30.02 in
Visibility 10.0 miles
Clouds Overcast 8500 ft
Dew Point 69 °F
Humidity 99%
Rainfall 0.00 in
Snow Depth Not available.
UV 3 out of 12
Pollen 5.70 out of 12
Air Quality Not available.
Flu Activity Not available.
METAR KSLG 041615Z AUTO 20006KT 10SM OVC085 28/19 A3002 RMK AO1

More Conditions Fewer Conditions

Nowcast | as of 11:02 am CDT on August 4, 2015

At 11:02 am...Doppler radars continued to indicate scattered rain showers spreading east across eastern Oklahoma. The trend has been for this activity to gradually weaken as it progresses eastward across the area. Through 12:30 PM...occasional rain showers will be possible for locations primarily along and to the west of A Hollow to Clayton line. However...there will be the potential for additional isolated development in advance of the ongoing activity. Most locations affected by these showers can expect light precipitation ...With average hourly rainfall of less than one tenth of an inch. Isolated locally higher amounts in excess of one tenth of an inch will be possible with stronger showers...which will also be capable of producing brief gusty winds.

×

10-Day Weather Forecast

×

Almanac

Astronomy

Aug. 04, 2015 Rise Set
Actual Time
Civil Twilight
Nautical Twilight
Astronomical Twilight
Moon
Length of Visible Light
Length of Day
Tomorrow will be .
, % of the Moon is Illuminated

Today's Extremes

State Highs State Lows

Community

WunderPhotos

Upload Photos

1,843,915 photos uploaded!

WunderBlogs® & News

Nearby

Air Quality

  Air Quality AQ Index Pollutant
Not available.

Snow Depth

Station Depth Elevation

Earthquake Activity

City Distance Mag. Time & Date
Minimum magnitude displayed is 2.5.

Coastal Water Temperatures

Place Temperature

Stations

Nearby Weather Stations

Station Location Temp. Windchill Dew Point Humidity Wind Precip. Elev Updated Type